Wheathampstead, United Kingdom
Current Conditions -  °F | °C
As of 5:50 AM on Saturday 29 Nov 2014 (Local Time) from EGGW Reporting Station
Clear Clear  
Wind Chill: 44°   Ceiling: Unl
Heat Index: 48°   Visibility: 4mi
Dew Point: 48°   Wind: 10mph
Humidity: 100%   Direction: 120°ESE
Pressure: 29.77"   Gusts: NA
Location:  51.81°N, 0.29°W
Report Text: EGGW 290550Z 12009KT 6000 NSC 09/09 Q1008
Loading
Personal Weather Stations






























Interactive Weather Map New forecast layout! Learn more

10-Day Weather Forecast

Advertisements
Track Severe Weather on mobile